sensor_id;sensor_type;location;lat;lon;timestamp;P1;durP1;ratioP1;P2;durP2;ratioP2
22334;SDS011;11335;43.848;25.958;2022-08-24T00:02:34;9.43;;;5.93;;
22334;SDS011;11335;43.848;25.958;2022-08-24T00:05:20;12.57;;;6.80;;
22334;SDS011;11335;43.848;25.958;2022-08-24T00:08:05;10.45;;;6.57;;
22334;SDS011;11335;43.848;25.958;2022-08-24T00:10:51;8.48;;;6.72;;
22334;SDS011;11335;43.848;25.958;2022-08-24T00:13:37;10.18;;;6.97;;
22334;SDS011;11335;43.848;25.958;2022-08-24T00:16:23;14.20;;;6.90;;
22334;SDS011;11335;43.848;25.958;2022-08-24T00:19:10;8.68;;;6.47;;
22334;SDS011;11335;43.848;25.958;2022-08-24T00:21:56;8.75;;;6.55;;
22334;SDS011;11335;43.848;25.958;2022-08-24T00:24:42;13.60;;;7.88;;
22334;SDS011;11335;43.848;25.958;2022-08-24T00:27:28;12.05;;;7.50;;
22334;SDS011;11335;43.848;25.958;2022-08-24T00:30:15;13.63;;;7.20;;
22334;SDS011;11335;43.848;25.958;2022-08-24T00:33:02;13.02;;;8.32;;
22334;SDS011;11335;43.848;25.958;2022-08-24T00:35:48;11.40;;;7.63;;
22334;SDS011;11335;43.848;25.958;2022-08-24T00:38:34;12.50;;;8.27;;
22334;SDS011;11335;43.848;25.958;2022-08-24T00:41:21;16.77;;;8.95;;
22334;SDS011;11335;43.848;25.958;2022-08-24T00:44:07;13.05;;;9.60;;
22334;SDS011;11335;43.848;25.958;2022-08-24T00:46:55;13.57;;;9.35;;
22334;SDS011;11335;43.848;25.958;2022-08-24T00:52:34;15.07;;;9.43;;
22334;SDS011;11335;43.848;25.958;2022-08-24T00:55:29;14.80;;;9.20;;
22334;SDS011;11335;43.848;25.958;2022-08-24T00:58:21;16.83;;;9.15;;
22334;SDS011;11335;43.848;25.958;2022-08-24T01:01:12;16.48;;;8.48;;
22334;SDS011;11335;43.848;25.958;2022-08-24T01:03:58;15.57;;;8.85;;
22334;SDS011;11335;43.848;25.958;2022-08-24T01:06:45;14.30;;;8.32;;
22334;SDS011;11335;43.848;25.958;2022-08-24T01:09:34;13.23;;;8.63;;
22334;SDS011;11335;43.848;25.958;2022-08-24T01:12:20;11.98;;;7.97;;
22334;SDS011;11335;43.848;25.958;2022-08-24T01:15:08;14.50;;;8.07;;
22334;SDS011;11335;43.848;25.958;2022-08-24T01:17:55;13.00;;;8.32;;
22334;SDS011;11335;43.848;25.958;2022-08-24T01:21:22;13.00;;;8.27;;
22334;SDS011;11335;43.848;25.958;2022-08-24T01:24:11;12.85;;;7.80;;
22334;SDS011;11335;43.848;25.958;2022-08-24T01:26:58;14.18;;;7.82;;
22334;SDS011;11335;43.848;25.958;2022-08-24T01:29:44;13.80;;;7.53;;
22334;SDS011;11335;43.848;25.958;2022-08-24T01:32:31;9.63;;;7.65;;
22334;SDS011;11335;43.848;25.958;2022-08-24T01:35:16;12.05;;;7.35;;
22334;SDS011;11335;43.848;25.958;2022-08-24T01:38:03;11.68;;;7.40;;
22334;SDS011;11335;43.848;25.958;2022-08-24T01:40:54;13.57;;;7.35;;
22334;SDS011;11335;43.848;25.958;2022-08-24T01:43:43;11.70;;;7.50;;
22334;SDS011;11335;43.848;25.958;2022-08-24T01:46:29;10.13;;;7.13;;
22334;SDS011;11335;43.848;25.958;2022-08-24T01:49:15;12.70;;;5.93;;
22334;SDS011;11335;43.848;25.958;2022-08-24T01:52:01;10.25;;;6.75;;
22334;SDS011;11335;43.848;25.958;2022-08-24T01:54:51;9.88;;;6.47;;
22334;SDS011;11335;43.848;25.958;2022-08-24T01:57:37;11.07;;;7.20;;
22334;SDS011;11335;43.848;25.958;2022-08-24T02:00:24;10.25;;;6.53;;
22334;SDS011;11335;43.848;25.958;2022-08-24T02:03:11;9.70;;;6.45;;
22334;SDS011;11335;43.848;25.958;2022-08-24T02:05:56;9.57;;;6.00;;
22334;SDS011;11335;43.848;25.958;2022-08-24T02:08:43;11.45;;;6.30;;
22334;SDS011;11335;43.848;25.958;2022-08-24T02:11:29;9.95;;;5.93;;
22334;SDS011;11335;43.848;25.958;2022-08-24T02:14:15;9.02;;;5.45;;
22334;SDS011;11335;43.848;25.958;2022-08-24T02:17:01;11.50;;;5.80;;
22334;SDS011;11335;43.848;25.958;2022-08-24T02:19:48;9.40;;;6.00;;
22334;SDS011;11335;43.848;25.958;2022-08-24T02:22:34;12.48;;;6.50;;
22334;SDS011;11335;43.848;25.958;2022-08-24T02:25:20;12.05;;;6.10;;
22334;SDS011;11335;43.848;25.958;2022-08-24T02:28:06;8.98;;;5.70;;
22334;SDS011;11335;43.848;25.958;2022-08-24T02:30:52;8.25;;;5.53;;
22334;SDS011;11335;43.848;25.958;2022-08-24T02:33:38;9.25;;;5.03;;
22334;SDS011;11335;43.848;25.958;2022-08-24T02:36:25;9.43;;;5.72;;
22334;SDS011;11335;43.848;25.958;2022-08-24T02:39:11;9.23;;;5.65;;
22334;SDS011;11335;43.848;25.958;2022-08-24T02:41:57;7.90;;;4.95;;
22334;SDS011;11335;43.848;25.958;2022-08-24T02:44:42;8.02;;;4.88;;
22334;SDS011;11335;43.848;25.958;2022-08-24T02:47:28;6.30;;;4.70;;
22334;SDS011;11335;43.848;25.958;2022-08-24T02:50:15;7.47;;;4.65;;
22334;SDS011;11335;43.848;25.958;2022-08-24T02:53:02;9.23;;;4.95;;
22334;SDS011;11335;43.848;25.958;2022-08-24T02:55:48;10.45;;;5.18;;
22334;SDS011;11335;43.848;25.958;2022-08-24T02:58:33;8.63;;;5.10;;
22334;SDS011;11335;43.848;25.958;2022-08-24T03:01:19;5.75;;;4.80;;
22334;SDS011;11335;43.848;25.958;2022-08-24T03:04:05;8.57;;;4.35;;
22334;SDS011;11335;43.848;25.958;2022-08-24T03:06:51;8.57;;;4.97;;
22334;SDS011;11335;43.848;25.958;2022-08-24T03:09:37;5.20;;;4.32;;
22334;SDS011;11335;43.848;25.958;2022-08-24T03:12:22;8.50;;;4.70;;
22334;SDS011;11335;43.848;25.958;2022-08-24T03:15:08;8.68;;;4.85;;
22334;SDS011;11335;43.848;25.958;2022-08-24T03:17:55;7.22;;;4.72;;
22334;SDS011;11335;43.848;25.958;2022-08-24T03:20:41;9.02;;;4.55;;
22334;SDS011;11335;43.848;25.958;2022-08-24T03:23:28;9.68;;;4.63;;
22334;SDS011;11335;43.848;25.958;2022-08-24T03:26:14;7.95;;;4.90;;
22334;SDS011;11335;43.848;25.958;2022-08-24T03:29:00;8.40;;;5.03;;
22334;SDS011;11335;43.848;25.958;2022-08-24T03:31:45;7.70;;;5.18;;
22334;SDS011;11335;43.848;25.958;2022-08-24T03:34:32;10.88;;;5.38;;
22334;SDS011;11335;43.848;25.958;2022-08-24T03:37:18;6.18;;;4.70;;
22334;SDS011;11335;43.848;25.958;2022-08-24T03:40:06;8.32;;;4.90;;
22334;SDS011;11335;43.848;25.958;2022-08-24T03:42:53;10.05;;;5.53;;
22334;SDS011;11335;43.848;25.958;2022-08-24T03:45:39;11.00;;;4.88;;
22334;SDS011;11335;43.848;25.958;2022-08-24T03:48:28;7.97;;;4.55;;
22334;SDS011;11335;43.848;25.958;2022-08-24T03:51:16;7.72;;;4.65;;
22334;SDS011;11335;43.848;25.958;2022-08-24T03:54:05;8.77;;;5.07;;
22334;SDS011;11335;43.848;25.958;2022-08-24T03:56:52;9.93;;;5.25;;
22334;SDS011;11335;43.848;25.958;2022-08-24T03:59:38;7.90;;;5.30;;
22334;SDS011;11335;43.848;25.958;2022-08-24T04:02:24;10.25;;;5.50;;
22334;SDS011;11335;43.848;25.958;2022-08-24T04:05:10;8.95;;;5.50;;
22334;SDS011;11335;43.848;25.958;2022-08-24T04:07:57;8.35;;;5.22;;
22334;SDS011;11335;43.848;25.958;2022-08-24T04:10:43;12.77;;;5.22;;
22334;SDS011;11335;43.848;25.958;2022-08-24T04:13:29;11.18;;;5.85;;
22334;SDS011;11335;43.848;25.958;2022-08-24T04:16:17;8.18;;;5.50;;
22334;SDS011;11335;43.848;25.958;2022-08-24T04:19:04;11.90;;;6.00;;
22334;SDS011;11335;43.848;25.958;2022-08-24T04:21:50;9.43;;;5.13;;
22334;SDS011;11335;43.848;25.958;2022-08-24T04:24:36;9.82;;;5.10;;
22334;SDS011;11335;43.848;25.958;2022-08-24T04:27:22;9.70;;;5.10;;
22334;SDS011;11335;43.848;25.958;2022-08-24T04:30:08;12.02;;;5.22;;
22334;SDS011;11335;43.848;25.958;2022-08-24T04:32:54;16.00;;;6.05;;
22334;SDS011;11335;43.848;25.958;2022-08-24T04:35:42;13.43;;;5.38;;
22334;SDS011;11335;43.848;25.958;2022-08-24T04:38:32;10.60;;;5.45;;
22334;SDS011;11335;43.848;25.958;2022-08-24T04:41:18;12.70;;;5.47;;
22334;SDS011;11335;43.848;25.958;2022-08-24T04:44:04;10.52;;;5.80;;
22334;SDS011;11335;43.848;25.958;2022-08-24T04:46:50;9.40;;;5.57;;
22334;SDS011;11335;43.848;25.958;2022-08-24T04:49:36;9.80;;;5.32;;
22334;SDS011;11335;43.848;25.958;2022-08-24T04:52:22;9.27;;;5.00;;
22334;SDS011;11335;43.848;25.958;2022-08-24T04:55:08;10.63;;;5.28;;
22334;SDS011;11335;43.848;25.958;2022-08-24T04:57:54;6.15;;;4.60;;
22334;SDS011;11335;43.848;25.958;2022-08-24T05:00:40;8.88;;;5.07;;
22334;SDS011;11335;43.848;25.958;2022-08-24T05:03:26;10.65;;;5.13;;
22334;SDS011;11335;43.848;25.958;2022-08-24T05:06:12;8.25;;;4.70;;
22334;SDS011;11335;43.848;25.958;2022-08-24T05:09:00;11.70;;;5.18;;
22334;SDS011;11335;43.848;25.958;2022-08-24T05:11:47;7.85;;;5.28;;
22334;SDS011;11335;43.848;25.958;2022-08-24T05:14:33;6.75;;;4.47;;
22334;SDS011;11335;43.848;25.958;2022-08-24T05:17:19;6.80;;;4.90;;
22334;SDS011;11335;43.848;25.958;2022-08-24T05:20:06;7.15;;;5.25;;
22334;SDS011;11335;43.848;25.958;2022-08-24T05:22:53;9.38;;;4.90;;
22334;SDS011;11335;43.848;25.958;2022-08-24T05:25:40;9.90;;;4.90;;
22334;SDS011;11335;43.848;25.958;2022-08-24T05:28:26;9.30;;;5.57;;
22334;SDS011;11335;43.848;25.958;2022-08-24T05:31:17;7.80;;;5.43;;
22334;SDS011;11335;43.848;25.958;2022-08-24T05:34:05;10.63;;;6.55;;
22334;SDS011;11335;43.848;25.958;2022-08-24T05:36:51;9.80;;;5.30;;
22334;SDS011;11335;43.848;25.958;2022-08-24T05:39:37;10.18;;;4.80;;
22334;SDS011;11335;43.848;25.958;2022-08-24T05:42:23;9.95;;;6.22;;
22334;SDS011;11335;43.848;25.958;2022-08-24T05:45:09;9.82;;;5.15;;
22334;SDS011;11335;43.848;25.958;2022-08-24T05:47:57;6.25;;;5.25;;
22334;SDS011;11335;43.848;25.958;2022-08-24T05:50:42;13.23;;;7.25;;
22334;SDS011;11335;43.848;25.958;2022-08-24T05:53:28;8.40;;;5.25;;
22334;SDS011;11335;43.848;25.958;2022-08-24T05:56:15;6.60;;;4.88;;
22334;SDS011;11335;43.848;25.958;2022-08-24T05:59:02;6.93;;;5.05;;
22334;SDS011;11335;43.848;25.958;2022-08-24T06:01:48;10.25;;;5.13;;
22334;SDS011;11335;43.848;25.958;2022-08-24T06:04:34;7.93;;;5.05;;
22334;SDS011;11335;43.848;25.958;2022-08-24T06:07:22;7.47;;;5.18;;
22334;SDS011;11335;43.848;25.958;2022-08-24T06:10:08;12.45;;;5.47;;
22334;SDS011;11335;43.848;25.958;2022-08-24T06:12:54;9.27;;;5.50;;
22334;SDS011;11335;43.848;25.958;2022-08-24T06:15:41;12.55;;;9.55;;
22334;SDS011;11335;43.848;25.958;2022-08-24T06:18:27;7.32;;;5.07;;
22334;SDS011;11335;43.848;25.958;2022-08-24T06:21:13;6.65;;;4.50;;
22334;SDS011;11335;43.848;25.958;2022-08-24T06:24:01;6.90;;;4.22;;
22334;SDS011;11335;43.848;25.958;2022-08-24T06:26:47;8.07;;;4.40;;
22334;SDS011;11335;43.848;25.958;2022-08-24T06:29:52;8.43;;;4.18;;
22334;SDS011;11335;43.848;25.958;2022-08-24T06:32:41;8.57;;;4.47;;
22334;SDS011;11335;43.848;25.958;2022-08-24T06:35:28;7.65;;;4.25;;
22334;SDS011;11335;43.848;25.958;2022-08-24T06:38:14;12.43;;;4.93;;
22334;SDS011;11335;43.848;25.958;2022-08-24T06:40:59;9.27;;;6.75;;
22334;SDS011;11335;43.848;25.958;2022-08-24T06:43:45;7.97;;;5.22;;
22334;SDS011;11335;43.848;25.958;2022-08-24T06:46:31;14.18;;;10.25;;
22334;SDS011;11335;43.848;25.958;2022-08-24T06:49:18;8.18;;;5.22;;
22334;SDS011;11335;43.848;25.958;2022-08-24T06:52:04;10.65;;;4.97;;
22334;SDS011;11335;43.848;25.958;2022-08-24T06:54:50;5.82;;;4.20;;
22334;SDS011;11335;43.848;25.958;2022-08-24T06:57:37;10.18;;;4.18;;
22334;SDS011;11335;43.848;25.958;2022-08-24T07:00:23;5.05;;;3.80;;
22334;SDS011;11335;43.848;25.958;2022-08-24T07:03:09;6.50;;;4.13;;
22334;SDS011;11335;43.848;25.958;2022-08-24T07:05:56;6.30;;;4.28;;
22334;SDS011;11335;43.848;25.958;2022-08-24T07:08:42;7.63;;;4.40;;
22334;SDS011;11335;43.848;25.958;2022-08-24T07:11:28;9.23;;;4.50;;
22334;SDS011;11335;43.848;25.958;2022-08-24T07:14:14;7.25;;;4.38;;
22334;SDS011;11335;43.848;25.958;2022-08-24T07:17:00;8.82;;;4.63;;
22334;SDS011;11335;43.848;25.958;2022-08-24T07:19:45;9.15;;;4.25;;
22334;SDS011;11335;43.848;25.958;2022-08-24T07:22:31;9.43;;;4.03;;
22334;SDS011;11335;43.848;25.958;2022-08-24T07:25:17;9.70;;;4.50;;
22334;SDS011;11335;43.848;25.958;2022-08-24T07:28:03;6.25;;;4.00;;
22334;SDS011;11335;43.848;25.958;2022-08-24T07:30:49;7.30;;;4.28;;
22334;SDS011;11335;43.848;25.958;2022-08-24T07:33:34;6.97;;;4.00;;
22334;SDS011;11335;43.848;25.958;2022-08-24T07:36:20;10.00;;;3.90;;
22334;SDS011;11335;43.848;25.958;2022-08-24T07:39:06;8.52;;;4.57;;
22334;SDS011;11335;43.848;25.958;2022-08-24T07:41:53;6.15;;;4.07;;
22334;SDS011;11335;43.848;25.958;2022-08-24T07:44:39;9.50;;;4.10;;
22334;SDS011;11335;43.848;25.958;2022-08-24T07:47:25;7.25;;;4.13;;
22334;SDS011;11335;43.848;25.958;2022-08-24T07:50:11;5.60;;;3.30;;
22334;SDS011;11335;43.848;25.958;2022-08-24T07:52:58;6.82;;;4.00;;
22334;SDS011;11335;43.848;25.958;2022-08-24T07:55:53;5.53;;;3.80;;
22334;SDS011;11335;43.848;25.958;2022-08-24T07:58:41;7.03;;;3.80;;
22334;SDS011;11335;43.848;25.958;2022-08-24T08:01:26;9.20;;;4.47;;
22334;SDS011;11335;43.848;25.958;2022-08-24T08:04:12;9.85;;;4.50;;
22334;SDS011;11335;43.848;25.958;2022-08-24T08:06:59;8.30;;;5.15;;
22334;SDS011;11335;43.848;25.958;2022-08-24T08:09:45;9.63;;;4.95;;
22334;SDS011;11335;43.848;25.958;2022-08-24T08:12:33;6.03;;;4.20;;
22334;SDS011;11335;43.848;25.958;2022-08-24T08:15:19;7.70;;;4.75;;
22334;SDS011;11335;43.848;25.958;2022-08-24T08:18:05;7.18;;;5.13;;
22334;SDS011;11335;43.848;25.958;2022-08-24T08:20:51;15.20;;;8.93;;
22334;SDS011;11335;43.848;25.958;2022-08-24T08:23:37;12.27;;;5.95;;
22334;SDS011;11335;43.848;25.958;2022-08-24T08:26:41;8.30;;;4.85;;
22334;SDS011;11335;43.848;25.958;2022-08-24T08:29:30;6.38;;;4.20;;
22334;SDS011;11335;43.848;25.958;2022-08-24T08:32:17;6.18;;;4.38;;
22334;SDS011;11335;43.848;25.958;2022-08-24T08:35:04;8.02;;;4.60;;
22334;SDS011;11335;43.848;25.958;2022-08-24T08:37:50;8.57;;;4.72;;
22334;SDS011;11335;43.848;25.958;2022-08-24T08:43:48;6.70;;;4.22;;
22334;SDS011;11335;43.848;25.958;2022-08-24T08:59:57;8.30;;;4.78;;
22334;SDS011;11335;43.848;25.958;2022-08-24T09:18:48;10.80;;;5.00;;
22334;SDS011;11335;43.848;25.958;2022-08-24T09:21:53;10.40;;;4.95;;
22334;SDS011;11335;43.848;25.958;2022-08-24T09:25:13;11.32;;;4.60;;
22334;SDS011;11335;43.848;25.958;2022-08-24T09:28:12;9.40;;;4.60;;
22334;SDS011;11335;43.848;25.958;2022-08-24T09:49:16;12.27;;;4.85;;
22334;SDS011;11335;43.848;25.958;2022-08-24T09:58:57;12.10;;;4.90;;
22334;SDS011;11335;43.848;25.958;2022-08-24T10:02:06;14.13;;;5.57;;
22334;SDS011;11335;43.848;25.958;2022-08-24T10:08:22;9.88;;;5.05;;
22334;SDS011;11335;43.848;25.958;2022-08-24T10:21:03;7.07;;;4.93;;
22334;SDS011;11335;43.848;25.958;2022-08-24T10:27:33;12.98;;;5.25;;
22334;SDS011;11335;43.848;25.958;2022-08-24T10:43:09;15.68;;;5.30;;
22334;SDS011;11335;43.848;25.958;2022-08-24T10:53:04;10.30;;;5.32;;
22334;SDS011;11335;43.848;25.958;2022-08-24T10:55:33;10.57;;;5.25;;
22334;SDS011;11335;43.848;25.958;2022-08-24T10:58:36;14.23;;;5.55;;
22334;SDS011;11335;43.848;25.958;2022-08-24T11:01:31;14.23;;;5.97;;
22334;SDS011;11335;43.848;25.958;2022-08-24T11:04:27;34.28;;;23.90;;
22334;SDS011;11335;43.848;25.958;2022-08-24T11:07:18;11.00;;;5.40;;
22334;SDS011;11335;43.848;25.958;2022-08-24T11:10:07;15.05;;;5.40;;
22334;SDS011;11335;43.848;25.958;2022-08-24T11:12:54;10.82;;;5.53;;
22334;SDS011;11335;43.848;25.958;2022-08-24T11:16:14;9.50;;;5.45;;
22334;SDS011;11335;43.848;25.958;2022-08-24T11:18:53;13.25;;;5.45;;
22334;SDS011;11335;43.848;25.958;2022-08-24T11:21:50;19.23;;;6.47;;
22334;SDS011;11335;43.848;25.958;2022-08-24T11:27:32;14.30;;;6.40;;
22334;SDS011;11335;43.848;25.958;2022-08-24T11:30:23;16.77;;;6.00;;
22334;SDS011;11335;43.848;25.958;2022-08-24T11:36:34;14.02;;;5.97;;
22334;SDS011;11335;43.848;25.958;2022-08-24T11:39:24;16.83;;;5.80;;
22334;SDS011;11335;43.848;25.958;2022-08-24T11:42:37;19.70;;;6.10;;
22334;SDS011;11335;43.848;25.958;2022-08-24T11:45:27;11.60;;;5.30;;
22334;SDS011;11335;43.848;25.958;2022-08-24T11:51:10;12.65;;;4.95;;
22334;SDS011;11335;43.848;25.958;2022-08-24T11:54:11;11.27;;;5.50;;
22334;SDS011;11335;43.848;25.958;2022-08-24T11:57:33;17.90;;;6.22;;
22334;SDS011;11335;43.848;25.958;2022-08-24T12:00:19;14.82;;;6.40;;
22334;SDS011;11335;43.848;25.958;2022-08-24T12:05:58;20.38;;;5.40;;
22334;SDS011;11335;43.848;25.958;2022-08-24T12:08:54;18.88;;;5.28;;
22334;SDS011;11335;43.848;25.958;2022-08-24T12:12:07;22.20;;;5.20;;
22334;SDS011;11335;43.848;25.958;2022-08-24T12:15:21;19.27;;;5.03;;
22334;SDS011;11335;43.848;25.958;2022-08-24T12:18:12;22.80;;;5.78;;
22334;SDS011;11335;43.848;25.958;2022-08-24T12:21:07;19.85;;;5.40;;
22334;SDS011;11335;43.848;25.958;2022-08-24T12:26:49;18.30;;;5.00;;
22334;SDS011;11335;43.848;25.958;2022-08-24T12:29:44;16.83;;;4.32;;
22334;SDS011;11335;43.848;25.958;2022-08-24T12:35:46;20.20;;;5.10;;
22334;SDS011;11335;43.848;25.958;2022-08-24T12:38:38;18.38;;;4.32;;
22334;SDS011;11335;43.848;25.958;2022-08-24T12:41:31;13.80;;;4.38;;
22334;SDS011;11335;43.848;25.958;2022-08-24T12:44:19;21.65;;;9.35;;
22334;SDS011;11335;43.848;25.958;2022-08-24T12:47:09;13.77;;;3.70;;
22334;SDS011;11335;43.848;25.958;2022-08-24T12:50:40;21.88;;;5.10;;
22334;SDS011;11335;43.848;25.958;2022-08-24T12:53:15;11.00;;;4.13;;
22334;SDS011;11335;43.848;25.958;2022-08-24T12:59:37;16.83;;;3.80;;
22334;SDS011;11335;43.848;25.958;2022-08-24T13:02:38;20.52;;;3.97;;
22334;SDS011;11335;43.848;25.958;2022-08-24T13:05:43;26.15;;;3.80;;
22334;SDS011;11335;43.848;25.958;2022-08-24T13:08:37;16.38;;;4.03;;
22334;SDS011;11335;43.848;25.958;2022-08-24T13:14:17;14.40;;;4.30;;
22334;SDS011;11335;43.848;25.958;2022-08-24T13:17:09;14.43;;;4.10;;
22334;SDS011;11335;43.848;25.958;2022-08-24T13:28:55;21.90;;;4.97;;
22334;SDS011;11335;43.848;25.958;2022-08-24T13:31:49;15.15;;;4.15;;
22334;SDS011;11335;43.848;25.958;2022-08-24T13:34:40;22.08;;;4.63;;
22334;SDS011;11335;43.848;25.958;2022-08-24T13:37:28;23.15;;;4.57;;
22334;SDS011;11335;43.848;25.958;2022-08-24T13:40:18;18.10;;;4.80;;
22334;SDS011;11335;43.848;25.958;2022-08-24T13:43:18;15.85;;;4.50;;
22334;SDS011;11335;43.848;25.958;2022-08-24T13:55:14;14.00;;;4.35;;
22334;SDS011;11335;43.848;25.958;2022-08-24T14:04:06;19.42;;;4.68;;
22334;SDS011;11335;43.848;25.958;2022-08-24T14:16:37;26.58;;;4.80;;
22334;SDS011;11335;43.848;25.958;2022-08-24T14:19:48;19.98;;;4.47;;
22334;SDS011;11335;43.848;25.958;2022-08-24T14:34:58;23.63;;;5.70;;
22334;SDS011;11335;43.848;25.958;2022-08-24T14:58:56;22.52;;;5.13;;
22334;SDS011;11335;43.848;25.958;2022-08-24T15:01:47;13.70;;;5.30;;
22334;SDS011;11335;43.848;25.958;2022-08-24T15:04:50;15.75;;;5.32;;
22334;SDS011;11335;43.848;25.958;2022-08-24T15:07:39;17.95;;;4.15;;
22334;SDS011;11335;43.848;25.958;2022-08-24T15:10:33;21.40;;;4.28;;
22334;SDS011;11335;43.848;25.958;2022-08-24T15:13:27;16.85;;;5.05;;
22334;SDS011;11335;43.848;25.958;2022-08-24T15:22:43;16.52;;;4.30;;
22334;SDS011;11335;43.848;25.958;2022-08-24T15:25:44;21.98;;;4.60;;
22334;SDS011;11335;43.848;25.958;2022-08-24T15:28:31;20.63;;;4.15;;
22334;SDS011;11335;43.848;25.958;2022-08-24T15:31:20;15.75;;;4.20;;
22334;SDS011;11335;43.848;25.958;2022-08-24T15:34:08;18.70;;;4.90;;
22334;SDS011;11335;43.848;25.958;2022-08-24T15:36:58;13.57;;;5.20;;
22334;SDS011;11335;43.848;25.958;2022-08-24T15:39:45;23.88;;;6.22;;
22334;SDS011;11335;43.848;25.958;2022-08-24T15:42:32;13.15;;;4.63;;
22334;SDS011;11335;43.848;25.958;2022-08-24T15:45:20;16.17;;;4.32;;
22334;SDS011;11335;43.848;25.958;2022-08-24T15:48:06;14.50;;;4.03;;
22334;SDS011;11335;43.848;25.958;2022-08-24T15:50:57;18.20;;;4.50;;
22334;SDS011;11335;43.848;25.958;2022-08-24T15:53:45;18.88;;;4.50;;
22334;SDS011;11335;43.848;25.958;2022-08-24T15:56:32;15.40;;;4.22;;
22334;SDS011;11335;43.848;25.958;2022-08-24T15:59:43;12.60;;;4.70;;
22334;SDS011;11335;43.848;25.958;2022-08-24T16:02:32;27.42;;;6.75;;
22334;SDS011;11335;43.848;25.958;2022-08-24T16:08:10;21.90;;;5.53;;
22334;SDS011;11335;43.848;25.958;2022-08-24T16:10:58;16.05;;;4.70;;
22334;SDS011;11335;43.848;25.958;2022-08-24T16:14:13;17.60;;;4.72;;
22334;SDS011;11335;43.848;25.958;2022-08-24T16:17:21;22.52;;;5.43;;
22334;SDS011;11335;43.848;25.958;2022-08-24T16:23:08;44.03;;;24.48;;
22334;SDS011;11335;43.848;25.958;2022-08-24T16:29:05;30.38;;;10.68;;
22334;SDS011;11335;43.848;25.958;2022-08-24T16:31:51;25.50;;;8.25;;
22334;SDS011;11335;43.848;25.958;2022-08-24T16:34:37;29.90;;;12.38;;
22334;SDS011;11335;43.848;25.958;2022-08-24T16:37:25;18.38;;;4.93;;
22334;SDS011;11335;43.848;25.958;2022-08-24T16:40:11;18.80;;;5.05;;
22334;SDS011;11335;43.848;25.958;2022-08-24T16:42:57;13.93;;;4.75;;
22334;SDS011;11335;43.848;25.958;2022-08-24T16:45:43;20.60;;;5.07;;
22334;SDS011;11335;43.848;25.958;2022-08-24T16:48:31;16.05;;;5.15;;
22334;SDS011;11335;43.848;25.958;2022-08-24T16:51:17;14.57;;;4.75;;
22334;SDS011;11335;43.848;25.958;2022-08-24T16:54:02;16.55;;;5.68;;
22334;SDS011;11335;43.848;25.958;2022-08-24T16:56:49;18.25;;;5.63;;
22334;SDS011;11335;43.848;25.958;2022-08-24T16:59:34;13.82;;;5.53;;
22334;SDS011;11335;43.848;25.958;2022-08-24T17:02:21;24.25;;;6.10;;
22334;SDS011;11335;43.848;25.958;2022-08-24T17:05:09;16.60;;;5.78;;
22334;SDS011;11335;43.848;25.958;2022-08-24T17:07:56;15.27;;;6.20;;
22334;SDS011;11335;43.848;25.958;2022-08-24T17:10:43;13.63;;;5.75;;
22334;SDS011;11335;43.848;25.958;2022-08-24T17:13:29;12.02;;;5.65;;
22334;SDS011;11335;43.848;25.958;2022-08-24T17:16:16;16.40;;;6.15;;
22334;SDS011;11335;43.848;25.958;2022-08-24T17:19:07;22.55;;;6.03;;
22334;SDS011;11335;43.848;25.958;2022-08-24T17:21:56;15.07;;;6.32;;
22334;SDS011;11335;43.848;25.958;2022-08-24T17:24:42;15.05;;;7.03;;
22334;SDS011;11335;43.848;25.958;2022-08-24T17:27:31;20.80;;;6.53;;
22334;SDS011;11335;43.848;25.958;2022-08-24T17:30:18;15.18;;;6.00;;
22334;SDS011;11335;43.848;25.958;2022-08-24T17:33:07;18.88;;;6.10;;
22334;SDS011;11335;43.848;25.958;2022-08-24T17:35:53;21.83;;;6.50;;
22334;SDS011;11335;43.848;25.958;2022-08-24T17:38:42;21.73;;;5.72;;
22334;SDS011;11335;43.848;25.958;2022-08-24T17:41:30;19.88;;;6.13;;
22334;SDS011;11335;43.848;25.958;2022-08-24T17:44:20;20.67;;;6.20;;
22334;SDS011;11335;43.848;25.958;2022-08-24T17:47:10;13.30;;;5.57;;
22334;SDS011;11335;43.848;25.958;2022-08-24T17:49:57;17.88;;;6.05;;
22334;SDS011;11335;43.848;25.958;2022-08-24T17:52:42;15.10;;;6.13;;
22334;SDS011;11335;43.848;25.958;2022-08-24T17:55:28;15.10;;;6.00;;
22334;SDS011;11335;43.848;25.958;2022-08-24T17:58:14;15.32;;;7.63;;
22334;SDS011;11335;43.848;25.958;2022-08-24T18:01:00;21.13;;;6.95;;
22334;SDS011;11335;43.848;25.958;2022-08-24T18:03:46;18.67;;;6.72;;
22334;SDS011;11335;43.848;25.958;2022-08-24T18:06:32;14.43;;;6.15;;
22334;SDS011;11335;43.848;25.958;2022-08-24T18:09:21;15.68;;;6.03;;
22334;SDS011;11335;43.848;25.958;2022-08-24T18:12:15;13.88;;;5.90;;
22334;SDS011;11335;43.848;25.958;2022-08-24T18:15:02;14.00;;;6.38;;
22334;SDS011;11335;43.848;25.958;2022-08-24T18:17:49;23.67;;;6.85;;
22334;SDS011;11335;43.848;25.958;2022-08-24T18:20:37;18.98;;;6.75;;
22334;SDS011;11335;43.848;25.958;2022-08-24T18:23:25;21.13;;;6.97;;
22334;SDS011;11335;43.848;25.958;2022-08-24T18:26:19;18.42;;;6.85;;
22334;SDS011;11335;43.848;25.958;2022-08-24T18:29:13;16.38;;;6.70;;
22334;SDS011;11335;43.848;25.958;2022-08-24T18:32:00;17.70;;;6.95;;
22334;SDS011;11335;43.848;25.958;2022-08-24T18:34:46;19.80;;;6.80;;
22334;SDS011;11335;43.848;25.958;2022-08-24T18:37:33;16.33;;;6.63;;
22334;SDS011;11335;43.848;25.958;2022-08-24T18:40:18;17.52;;;6.20;;
22334;SDS011;11335;43.848;25.958;2022-08-24T18:43:04;12.80;;;6.65;;
22334;SDS011;11335;43.848;25.958;2022-08-24T18:45:51;14.27;;;6.70;;
22334;SDS011;11335;43.848;25.958;2022-08-24T18:48:38;17.20;;;7.13;;
22334;SDS011;11335;43.848;25.958;2022-08-24T18:51:23;21.20;;;7.82;;
22334;SDS011;11335;43.848;25.958;2022-08-24T18:54:11;15.10;;;7.80;;
22334;SDS011;11335;43.848;25.958;2022-08-24T18:57:00;16.95;;;7.60;;
22334;SDS011;11335;43.848;25.958;2022-08-24T18:59:46;22.38;;;7.80;;
22334;SDS011;11335;43.848;25.958;2022-08-24T19:02:33;15.40;;;6.93;;
22334;SDS011;11335;43.848;25.958;2022-08-24T19:05:21;18.48;;;7.75;;
22334;SDS011;11335;43.848;25.958;2022-08-24T19:08:08;13.85;;;6.78;;
22334;SDS011;11335;43.848;25.958;2022-08-24T19:10:54;14.68;;;6.97;;
22334;SDS011;11335;43.848;25.958;2022-08-24T19:13:40;20.40;;;7.20;;
22334;SDS011;11335;43.848;25.958;2022-08-24T19:16:26;19.52;;;7.40;;
22334;SDS011;11335;43.848;25.958;2022-08-24T19:19:12;19.45;;;7.25;;
22334;SDS011;11335;43.848;25.958;2022-08-24T19:21:58;18.13;;;6.97;;
22334;SDS011;11335;43.848;25.958;2022-08-24T19:24:45;17.55;;;6.85;;
22334;SDS011;11335;43.848;25.958;2022-08-24T19:27:31;21.08;;;7.40;;
22334;SDS011;11335;43.848;25.958;2022-08-24T19:30:17;21.60;;;6.47;;
22334;SDS011;11335;43.848;25.958;2022-08-24T19:33:04;14.70;;;6.75;;
22334;SDS011;11335;43.848;25.958;2022-08-24T19:35:50;14.63;;;6.07;;
22334;SDS011;11335;43.848;25.958;2022-08-24T19:38:36;16.50;;;6.55;;
22334;SDS011;11335;43.848;25.958;2022-08-24T19:41:22;14.85;;;6.25;;
22334;SDS011;11335;43.848;25.958;2022-08-24T19:44:08;20.15;;;7.78;;
22334;SDS011;11335;43.848;25.958;2022-08-24T19:47:13;22.10;;;7.70;;
22334;SDS011;11335;43.848;25.958;2022-08-24T19:49:59;18.17;;;6.85;;
22334;SDS011;11335;43.848;25.958;2022-08-24T19:52:45;20.80;;;6.50;;
22334;SDS011;11335;43.848;25.958;2022-08-24T19:55:31;20.30;;;7.13;;
22334;SDS011;11335;43.848;25.958;2022-08-24T19:58:43;20.58;;;6.15;;